Time;durP1;ratioP1;P1;durP2;ratioP2;P2;SDS_P1;SDS_P2;PMS_P1;PMS_P2;Temp;Humidity;BMP_temperature;BMP_pressure;BME280_temperature;BME280_humidity;BME280_pressure;Samples;Min_cycle;Max_cycle;Signal;HPM_P1;HPM_P2
2023/08/11 00:01:21;;;;;;;0.90;0.90;;;15.60;95.70;;;;;;4962304;28;20031;-76
2023/08/11 00:03:47;;;;;;;0.77;0.77;;;15.60;95.90;;;;;;4957600;28;20131;-77
2023/08/11 00:06:16;;;;;;;0.80;0.80;;;15.50;96.10;;;;;;4958670;28;20019;-77
2023/08/11 00:08:42;;;;;;;0.82;0.82;;;15.50;96.30;;;;;;4959478;28;20019;-77
2023/08/11 00:11:08;;;;;;;0.77;0.77;;;15.50;96.40;;;;;;4975084;28;20106;-75
2023/08/11 00:13:33;;;;;;;0.80;0.80;;;15.50;96.60;;;;;;4973370;28;20034;-77
2023/08/11 00:16:03;;;;;;;0.88;0.88;;;15.50;96.80;;;;;;4972098;28;20035;-77
2023/08/11 00:18:28;;;;;;;0.80;0.80;;;15.40;96.90;;;;;;4970763;28;20057;-76
2023/08/11 00:20:54;;;;;;;1.05;1.00;;;15.40;97.10;;;;;;4958523;28;20366;-77
2023/08/11 00:23:20;;;;;;;1.27;1.17;;;15.40;97.20;;;;;;4961874;28;20101;-77
2023/08/11 00:25:45;;;;;;;0.80;0.80;;;15.30;97.30;;;;;;4961504;28;20035;-77
2023/08/11 00:28:11;;;;;;;0.95;0.90;;;15.30;97.60;;;;;;4972577;28;20050;-77
2023/08/11 00:30:37;;;;;;;1.15;1.08;;;15.30;97.90;;;;;;4960437;28;20082;-77
2023/08/11 00:33:03;;;;;;;1.05;1.05;;;15.20;98.10;;;;;;4956219;28;20513;-77
2023/08/11 00:35:29;;;;;;;1.10;1.10;;;15.20;98.20;;;;;;4957213;28;20011;-77
2023/08/11 00:37:55;;;;;;;1.10;1.00;;;15.20;98.30;;;;;;4958503;28;20007;-77
2023/08/11 00:40:22;;;;;;;1.25;1.15;;;15.20;98.40;;;;;;4955828;28;20027;-76
2023/08/11 00:42:49;;;;;;;0.80;0.80;;;15.20;98.60;;;;;;4958466;28;20127;-76
2023/08/11 00:45:15;;;;;;;1.30;1.20;;;15.20;98.80;;;;;;4958155;28;20038;-77
2023/08/11 00:47:41;;;;;;;1.08;1.08;;;15.20;98.90;;;;;;4961226;28;20036;-75
2023/08/11 00:50:08;;;;;;;0.90;0.90;;;15.10;99.10;;;;;;4959171;28;20034;-77
2023/08/11 00:52:34;;;;;;;0.73;0.73;;;15.10;99.30;;;;;;4955519;28;20043;-77
2023/08/11 00:55:00;;;;;;;0.70;0.70;;;15.10;99.40;;;;;;4953886;28;20027;-77
2023/08/11 00:57:26;;;;;;;0.93;0.93;;;15.10;99.50;;;;;;4955817;28;20030;-77
2023/08/11 00:59:52;;;;;;;0.90;0.90;;;15.10;99.80;;;;;;4955058;28;20118;-77
2023/08/11 01:02:18;;;;;;;0.85;0.85;;;15.10;99.90;;;;;;4959438;28;20110;-77
2023/08/11 01:04:43;;;;;;;1.00;1.00;;;15.10;99.90;;;;;;4959946;28;20062;-77
2023/08/11 01:07:25;;;;;;;0.90;0.90;;;15.10;99.90;;;;;;4964708;28;20127;-77
2023/08/11 01:10:19;;;;;;;0.70;0.70;;;15.00;99.90;;;;;;4956971;28;20063;-77
2023/08/11 01:12:59;;;;;;;0.80;0.80;;;15.00;99.90;;;;;;4959496;28;20090;-75
2023/08/11 01:15:37;;;;;;;0.80;0.80;;;15.00;99.90;;;;;;4956368;28;20027;-77
2023/08/11 01:18:05;;;;;;;1.45;1.35;;;14.90;99.90;;;;;;4966495;28;20050;-77
2023/08/11 01:20:32;;;;;;;0.90;0.90;;;14.90;99.90;;;;;;4956307;28;20033;-76
2023/08/11 01:23:00;;;;;;;1.10;1.10;;;14.90;99.90;;;;;;4955243;29;20528;-76
2023/08/11 01:25:26;;;;;;;0.98;0.98;;;14.90;99.90;;;;;;4962192;28;20433;-75
2023/08/11 01:27:57;;;;;;;1.10;1.10;;;14.90;99.90;;;;;;4966350;28;20026;-76
2023/08/11 01:30:24;;;;;;;1.00;0.90;;;14.90;99.90;;;;;;4954291;28;20035;-76
2023/08/11 01:32:52;;;;;;;1.00;0.90;;;14.80;99.90;;;;;;4956323;28;20484;-76
2023/08/11 01:35:19;;;;;;;1.02;0.93;;;14.80;99.90;;;;;;4954589;28;20031;-76
2023/08/11 01:37:45;;;;;;;1.20;1.10;;;14.70;99.90;;;;;;4957038;28;20094;-76
2023/08/11 01:40:11;;;;;;;0.80;0.80;;;14.80;99.90;;;;;;4954696;28;20042;-76
2023/08/11 01:42:46;;;;;;;1.00;1.00;;;14.70;99.90;;;;;;4954386;28;20019;-76
2023/08/11 01:45:13;;;;;;;1.17;1.17;;;14.70;99.90;;;;;;4955950;28;20035;-77
2023/08/11 01:47:46;;;;;;;0.77;0.77;;;14.70;99.90;;;;;;4959915;28;20054;-77
2023/08/11 01:50:13;;;;;;;1.23;1.13;;;14.70;99.90;;;;;;4955755;28;20043;-77
2023/08/11 01:52:43;;;;;;;0.85;0.85;;;14.70;99.90;;;;;;4959690;28;20015;-77
2023/08/11 01:55:10;;;;;;;1.10;1.10;;;14.70;99.90;;;;;;4958025;28;20507;-77
2023/08/11 01:57:37;;;;;;;0.95;0.95;;;14.60;99.90;;;;;;4957754;28;20066;-77
2023/08/11 02:00:13;;;;;;;1.08;1.08;;;14.60;99.90;;;;;;4958060;28;20027;-77
2023/08/11 02:02:40;;;;;;;0.80;0.80;;;14.60;99.90;;;;;;4957818;28;20038;-76
2023/08/11 02:05:11;;;;;;;1.25;1.15;;;14.60;99.90;;;;;;4964309;28;20038;-76
2023/08/11 02:07:40;;;;;;;1.05;1.05;;;14.50;99.90;;;;;;4958752;28;20118;-76
2023/08/11 02:10:08;;;;;;;1.30;1.20;;;14.50;99.90;;;;;;4961605;28;20037;-77
2023/08/11 02:12:34;;;;;;;0.90;0.90;;;14.50;99.90;;;;;;4958334;28;20023;-76
2023/08/11 02:15:00;;;;;;;1.10;1.10;;;14.50;99.90;;;;;;4957883;28;20385;-77
2023/08/11 02:17:26;;;;;;;1.17;1.08;;;14.50;99.90;;;;;;4960625;28;20027;-76
2023/08/11 02:19:53;;;;;;;1.23;1.17;;;14.50;99.90;;;;;;4958353;28;20103;-77
2023/08/11 02:22:19;;;;;;;1.13;1.13;;;14.50;99.90;;;;;;4971769;28;20031;-76
2023/08/11 02:24:45;;;;;;;1.40;1.30;;;14.50;99.90;;;;;;4960165;28;20028;-77
2023/08/11 02:27:10;;;;;;;1.10;1.00;;;14.50;99.90;;;;;;4958656;28;20042;-77
2023/08/11 02:29:37;;;;;;;1.30;1.20;;;14.40;99.90;;;;;;4958411;28;20046;-77
2023/08/11 02:32:05;;;;;;;1.08;1.08;;;14.40;99.90;;;;;;4961221;28;20366;-76
2023/08/11 02:34:31;;;;;;;1.05;1.00;;;14.40;99.90;;;;;;4959452;28;20016;-76
2023/08/11 02:36:57;;;;;;;0.90;0.90;;;14.30;99.90;;;;;;4966761;28;20007;-76
2023/08/11 02:39:23;;;;;;;0.98;0.98;;;14.30;99.90;;;;;;4969684;28;20504;-76
2023/08/11 02:41:49;;;;;;;0.90;0.90;;;14.30;99.90;;;;;;4970844;28;20027;-76
2023/08/11 02:44:15;;;;;;;0.85;0.85;;;14.30;99.90;;;;;;4979396;28;20019;-75
2023/08/11 02:46:41;;;;;;;1.33;1.23;;;14.20;99.90;;;;;;4978445;28;20047;-76
2023/08/11 02:49:07;;;;;;;1.00;1.00;;;14.30;99.90;;;;;;4978975;28;20030;-76
2023/08/11 02:51:33;;;;;;;0.95;0.93;;;14.20;99.90;;;;;;4974323;28;20051;-77
2023/08/11 02:53:59;;;;;;;1.00;1.00;;;14.20;99.90;;;;;;4957817;28;20027;-77
2023/08/11 02:56:25;;;;;;;1.20;1.10;;;14.20;99.90;;;;;;4956678;28;20062;-76
2023/08/11 02:58:52;;;;;;;0.90;0.90;;;14.20;99.90;;;;;;4957503;28;20023;-77
2023/08/11 03:01:18;;;;;;;0.82;0.82;;;14.10;99.90;;;;;;4956613;28;20443;-75
2023/08/11 03:03:43;;;;;;;1.02;1.00;;;14.20;99.90;;;;;;4959413;28;20039;-76
2023/08/11 03:06:13;;;;;;;1.02;1.02;;;14.10;99.90;;;;;;4968249;28;20103;-76
2023/08/11 03:08:40;;;;;;;1.08;1.08;;;14.10;99.90;;;;;;4957614;28;20095;-77
2023/08/11 03:11:05;;;;;;;0.70;0.70;;;14.10;99.90;;;;;;4956654;28;20035;-77
2023/08/11 03:13:31;;;;;;;0.93;0.93;;;14.10;99.90;;;;;;4957937;28;20050;-77
2023/08/11 03:15:58;;;;;;;1.00;1.00;;;14.10;99.90;;;;;;4957191;28;20050;-77
2023/08/11 03:18:24;;;;;;;1.08;1.08;;;14.10;99.90;;;;;;4957373;28;20024;-76
2023/08/11 03:20:52;;;;;;;1.05;1.05;;;14.10;99.90;;;;;;4959290;28;20031;-76
2023/08/11 03:23:18;;;;;;;0.80;0.80;;;14.10;99.90;;;;;;4957566;28;20019;-75
2023/08/11 03:25:44;;;;;;;1.33;1.23;;;14.00;99.90;;;;;;4978317;28;20035;-76
2023/08/11 03:28:10;;;;;;;1.23;1.13;;;14.00;99.90;;;;;;4958891;28;20108;-76
2023/08/11 03:30:36;;;;;;;1.42;1.33;;;14.00;99.90;;;;;;4957792;28;20118;-76
2023/08/11 03:33:02;;;;;;;1.55;1.00;;;13.90;99.90;;;;;;4955241;28;20481;-76
2023/08/11 03:35:27;;;;;;;1.35;1.25;;;14.00;99.90;;;;;;4962167;28;20032;-76
2023/08/11 03:37:53;;;;;;;1.55;1.45;;;13.90;99.90;;;;;;4957521;28;20028;-76
2023/08/11 03:40:19;;;;;;;1.60;1.50;;;14.00;99.90;;;;;;4955854;28;20034;-76
2023/08/11 03:42:45;;;;;;;2.03;1.63;;;14.00;99.90;;;;;;4969477;28;20027;-76
2023/08/11 03:45:12;;;;;;;1.40;1.30;;;13.90;99.90;;;;;;4977636;28;20451;-76
2023/08/11 03:47:39;;;;;;;1.67;1.40;;;13.90;99.90;;;;;;4973644;28;20031;-76
2023/08/11 03:50:06;;;;;;;1.30;1.27;;;13.90;99.90;;;;;;4975396;28;20444;-77
2023/08/11 03:52:32;;;;;;;1.10;1.10;;;13.90;99.90;;;;;;4973314;28;20019;-77
2023/08/11 03:54:58;;;;;;;1.30;1.20;;;13.90;99.90;;;;;;4974877;28;20065;-77
2023/08/11 03:57:25;;;;;;;1.10;1.10;;;13.80;99.90;;;;;;4964641;28;20051;-76
2023/08/11 03:59:51;;;;;;;0.93;0.93;;;13.80;99.90;;;;;;4955788;28;20027;-76
2023/08/11 04:02:17;;;;;;;1.67;1.58;;;13.80;99.90;;;;;;4955793;28;20372;-75
2023/08/11 04:04:43;;;;;;;1.10;1.10;;;13.80;99.90;;;;;;4954974;28;20023;-75
2023/08/11 04:07:09;;;;;;;1.20;1.10;;;13.80;99.90;;;;;;4956754;28;20035;-76
2023/08/11 04:09:35;;;;;;;1.30;1.20;;;13.90;99.90;;;;;;4958230;28;20039;-76
2023/08/11 04:12:01;;;;;;;1.10;1.10;;;13.90;99.90;;;;;;4956305;28;20034;-77
2023/08/11 04:14:26;;;;;;;1.13;1.13;;;13.90;99.90;;;;;;4971755;28;20027;-77
2023/08/11 04:16:52;;;;;;;1.13;1.10;;;13.90;99.90;;;;;;4969875;28;20023;-77
2023/08/11 04:19:17;;;;;;;1.17;1.15;;;13.90;99.90;;;;;;4956248;28;20078;-77
2023/08/11 04:21:43;;;;;;;1.13;1.02;;;13.90;99.90;;;;;;4954421;28;20106;-77
2023/08/11 04:24:09;;;;;;;1.30;1.20;;;13.90;99.90;;;;;;4956778;28;20212;-77
2023/08/11 04:26:34;;;;;;;1.35;1.25;;;13.90;99.90;;;;;;4956011;28;20078;-77
2023/08/11 04:29:01;;;;;;;1.38;1.27;;;13.90;99.90;;;;;;4956944;28;20440;-77
2023/08/11 04:31:27;;;;;;;1.60;1.50;;;13.90;99.90;;;;;;4954657;28;20031;-76
2023/08/11 04:33:53;;;;;;;1.38;1.27;;;13.90;99.90;;;;;;4956170;28;20030;-77
2023/08/11 04:36:19;;;;;;;1.42;1.33;;;13.90;99.90;;;;;;4960814;28;20441;-76
2023/08/11 04:38:45;;;;;;;1.15;1.10;;;13.90;99.90;;;;;;4955728;28;20026;-76
2023/08/11 04:41:10;;;;;;;0.95;0.95;;;13.90;99.90;;;;;;4955931;28;20058;-77
2023/08/11 04:43:36;;;;;;;1.40;1.30;;;13.90;99.90;;;;;;4936035;29;20023;-75
2023/08/11 04:46:03;;;;;;;1.10;1.00;;;13.90;99.90;;;;;;4953785;28;20031;-76
2023/08/11 04:48:30;;;;;;;1.33;1.23;;;14.00;99.90;;;;;;4976211;28;20027;-76
2023/08/11 04:50:56;;;;;;;1.40;1.30;;;14.00;99.90;;;;;;4974689;28;20034;-77
2023/08/11 04:53:23;;;;;;;1.10;1.10;;;14.00;99.90;;;;;;4973944;28;20485;-77
2023/08/11 04:55:48;;;;;;;1.00;1.00;;;14.10;99.90;;;;;;4967743;28;20042;-76
2023/08/11 04:58:14;;;;;;;1.10;1.08;;;14.10;99.90;;;;;;4954740;28;20396;-77
2023/08/11 05:00:40;;;;;;;1.50;1.40;;;14.20;99.90;;;;;;4962482;28;20042;-77
2023/08/11 05:03:06;;;;;;;1.70;1.60;;;14.20;99.90;;;;;;4975332;28;20038;-76
2023/08/11 05:05:31;;;;;;;1.50;1.40;;;14.20;99.90;;;;;;4965882;28;20114;-77
2023/08/11 05:07:57;;;;;;;1.58;1.48;;;14.20;99.90;;;;;;4962442;28;20037;-77
2023/08/11 05:10:23;;;;;;;2.28;1.88;;;14.30;99.90;;;;;;4977324;28;20110;-76
2023/08/11 05:12:49;;;;;;;1.63;1.52;;;14.30;99.90;;;;;;4975546;28;20057;-76
2023/08/11 05:15:15;;;;;;;1.70;1.60;;;14.40;99.90;;;;;;4988399;28;20065;-76
2023/08/11 05:17:40;;;;;;;1.50;1.40;;;14.80;99.90;;;;;;4978896;28;20034;-75
2023/08/11 05:20:07;;;;;;;1.50;1.40;;;14.90;99.90;;;;;;4971927;28;20050;-77
2023/08/11 05:22:34;;;;;;;1.85;1.75;;;14.90;99.90;;;;;;4969813;28;20384;-75
2023/08/11 05:25:02;;;;;;;1.58;1.48;;;14.90;99.90;;;;;;4980214;28;20071;-76
2023/08/11 05:27:27;;;;;;;1.90;1.80;;;14.80;99.90;;;;;;4969633;28;20094;-77
2023/08/11 05:29:53;;;;;;;1.58;1.48;;;14.80;99.90;;;;;;4959506;28;20086;-77
2023/08/11 05:32:19;;;;;;;1.33;1.23;;;14.80;99.90;;;;;;4961668;28;20042;-76
2023/08/11 05:34:45;;;;;;;1.80;1.60;;;14.90;99.90;;;;;;4957492;28;20030;-76
2023/08/11 05:37:10;;;;;;;1.40;1.30;;;14.90;99.90;;;;;;4962120;28;20037;-76
2023/08/11 05:39:38;;;;;;;1.77;1.67;;;15.00;99.90;;;;;;4959976;28;20037;-77
2023/08/11 05:42:05;;;;;;;1.90;1.80;;;15.10;99.90;;;;;;4960289;28;20358;-76
2023/08/11 05:44:31;;;;;;;1.50;1.40;;;15.20;99.90;;;;;;4966163;28;20030;-76
2023/08/11 05:46:57;;;;;;;2.15;1.95;;;15.30;99.90;;;;;;4985201;28;20094;-77
2023/08/11 05:49:22;;;;;;;1.80;1.70;;;15.30;99.90;;;;;;4976661;28;20019;-75
2023/08/11 05:51:48;;;;;;;1.52;1.40;;;15.40;99.90;;;;;;4967085;28;20127;-77
2023/08/11 05:54:14;;;;;;;1.52;1.42;;;15.40;99.90;;;;;;4961127;28;20415;-76
2023/08/11 05:56:39;;;;;;;1.67;1.58;;;15.50;99.90;;;;;;4959897;28;20134;-77
2023/08/11 05:59:05;;;;;;;2.33;2.13;;;15.60;99.90;;;;;;4963687;28;20023;-76
2023/08/11 06:01:31;;;;;;;1.48;1.38;;;15.70;99.90;;;;;;4977572;28;20041;-78
2023/08/11 06:03:56;;;;;;;1.17;1.08;;;15.80;99.90;;;;;;4968334;28;20047;-76
2023/08/11 06:06:22;;;;;;;1.35;1.25;;;16.00;99.90;;;;;;4961186;28;20023;-76
2023/08/11 06:08:48;;;;;;;1.50;1.40;;;16.10;99.90;;;;;;4975352;28;20457;-77
2023/08/11 06:11:13;;;;;;;1.52;1.42;;;16.20;99.90;;;;;;4977952;28;20101;-76
2023/08/11 06:13:39;;;;;;;1.25;1.20;;;16.40;99.90;;;;;;4970220;28;20046;-76
2023/08/11 06:16:05;;;;;;;1.42;1.20;;;;;;;;;;4958415;28;20035;-76
2023/08/11 06:18:31;;;;;;;1.23;1.13;;;;;;;;;;4973815;28;20420;-76
2023/08/11 06:20:58;;;;;;;1.17;1.00;;;;;;;;;;4977869;28;20045;-75
2023/08/11 06:23:24;;;;;;;1.10;1.00;;;;;;;;;;4979095;28;20121;-76
2023/08/11 06:25:50;;;;;;;0.85;0.85;;;;;;;;;;4978677;28;20130;-77
2023/08/11 06:28:16;;;;;;;0.80;0.80;;;;;;;;;;4973003;28;20364;-76
2023/08/11 06:30:42;;;;;;;0.70;0.70;;;;;;;;;;4960045;28;20125;-76
2023/08/11 06:33:08;;;;;;;0.93;0.93;;;;;;;;;;4957663;28;20031;-77
2023/08/11 06:35:35;;;;;;;0.98;0.98;;;;;;;;;;4957422;28;20456;-77
2023/08/11 06:38:01;;;;;;;0.88;0.88;;;;;;;;;;4957773;28;20035;-76
2023/08/11 06:40:27;;;;;;;0.70;0.70;;;;;;;;;;4963390;28;20044;-76
2023/08/11 06:42:53;;;;;;;0.80;0.80;;;;;;;;;;4958354;28;20050;-77
2023/08/11 06:45:19;;;;;;;0.90;0.90;;;;;;;;;;4960462;28;20031;-76
2023/08/11 06:47:45;;;;;;;0.70;0.70;;;;;;;;;;4958006;28;20023;-76
2023/08/11 06:50:11;;;;;;;0.90;0.90;;;;;;;;;;4958566;28;20416;-77
2023/08/11 06:52:37;;;;;;;0.60;0.60;;;;;;;;;;4974350;28;20496;-75
2023/08/11 06:55:05;;;;;;;0.70;0.70;;;;;;;;;;4977797;28;20368;-76
2023/08/11 06:57:31;;;;;;;0.75;0.75;;;;;;;;;;4972112;28;20054;-77
2023/08/11 06:59:57;;;;;;;0.70;0.70;;;;;;;;;;4960198;28;20038;-76
2023/08/11 07:02:23;;;;;;;0.80;0.80;;;;;;;;;;4959232;28;20046;-76
2023/08/11 07:04:50;;;;;;;0.57;0.57;;;;;;;;;;4958197;28;20027;-76
2023/08/11 07:07:16;;;;;;;0.50;0.50;;;;;;;;;;4957406;28;20046;-76
2023/08/11 07:09:42;;;;;;;0.50;0.50;;;;;;;;;;4958792;28;20046;-76
2023/08/11 07:12:07;;;;;;;0.43;0.43;;;24.20;59.30;;;;;;4969219;28;20038;-77
2023/08/11 07:14:33;;;;;;;0.70;0.70;;;23.60;61.50;;;;;;4977331;28;20034;-77
2023/08/11 07:16:59;;;;;;;1.20;1.20;;;22.60;65.30;;;;;;4967973;28;20096;-77
2023/08/11 07:19:24;;;;;;;1.17;1.08;;;21.80;68.40;;;;;;4960221;28;20030;-76
2023/08/11 07:21:50;;;;;;;1.15;1.15;;;21.20;70.70;;;;;;4972473;28;20038;-76
2023/08/11 07:24:16;;;;;;;1.27;1.20;;;20.80;72.60;;;;;;4980189;28;20042;-76
2023/08/11 07:26:42;;;;;;;1.30;1.30;;;20.50;74.20;;;;;;4978410;28;20467;-76
2023/08/11 07:29:07;;;;;;;1.60;1.50;;;20.30;75.80;;;;;;4962493;28;20035;-76
2023/08/11 07:31:33;;;;;;;1.23;1.13;;;20.30;77.30;;;;;;4975584;28;20086;-77
2023/08/11 07:33:59;;;;;;;2.00;1.70;;;20.20;78.00;;;;;;4962289;28;20023;-77
2023/08/11 07:36:24;;;;;;;1.60;1.50;;;20.20;78.20;;;;;;4963902;28;20022;-76
2023/08/11 07:38:50;;;;;;;1.88;1.75;;;20.10;78.70;;;;;;4959387;28;20129;-76
2023/08/11 07:41:16;;;;;;;1.63;1.52;;;20.10;79.10;;;;;;4961490;28;20033;-77
2023/08/11 07:43:41;;;;;;;1.70;1.60;;;20.20;79.20;;;;;;4978845;28;20114;-77
2023/08/11 07:46:07;;;;;;;1.90;1.60;;;20.30;79.40;;;;;;4974967;28;20034;-77
2023/08/11 07:48:33;;;;;;;1.63;1.52;;;20.30;79.20;;;;;;4957233;28;20031;-77
2023/08/11 07:50:58;;;;;;;1.45;1.40;;;20.40;78.60;;;;;;4958116;28;20027;-78
2023/08/11 07:53:24;;;;;;;2.15;1.85;;;20.40;78.90;;;;;;4961745;28;20028;-77
2023/08/11 07:55:50;;;;;;;1.77;1.67;;;20.50;78.30;;;;;;4960731;28;20101;-76
2023/08/11 07:58:16;;;;;;;1.98;1.80;;;20.60;77.90;;;;;;4959732;28;20023;-77
2023/08/11 08:00:41;;;;;;;2.08;1.88;;;20.70;77.50;;;;;;4959530;28;20438;-76
2023/08/11 08:03:07;;;;;;;1.83;1.65;;;20.80;77.10;;;;;;4959363;28;20169;-76
2023/08/11 08:05:33;;;;;;;2.17;1.90;;;20.90;76.90;;;;;;4965264;28;20031;-75
2023/08/11 08:07:59;;;;;;;2.10;1.90;;;21.00;76.70;;;;;;4965462;28;20126;-76
2023/08/11 08:10:25;;;;;;;1.90;1.80;;;21.20;76.10;;;;;;4958876;28;20059;-75
2023/08/11 08:12:51;;;;;;;1.58;1.48;;;21.40;75.60;;;;;;4957698;28;20122;-76
2023/08/11 08:15:17;;;;;;;1.98;1.67;;;21.50;74.60;;;;;;4963104;28;20031;-76
2023/08/11 08:17:43;;;;;;;2.15;2.00;;;21.60;74.10;;;;;;4975051;28;20081;-76
2023/08/11 08:20:09;;;;;;;1.95;1.75;;;21.80;74.20;;;;;;4976198;28;20045;-76
2023/08/11 08:22:38;;;;;;;2.70;2.50;;;21.90;73.40;;;;;;4956240;28;20500;-75
2023/08/11 08:25:07;;;;;;;2.78;2.58;;;22.00;72.70;;;;;;4956999;28;20037;-76
2023/08/11 08:27:37;;;;;;;2.63;2.20;;;22.20;71.90;;;;;;4966880;28;20037;-76
2023/08/11 08:30:03;;;;;;;1.90;1.80;;;22.30;71.70;;;;;;4977831;28;20042;-76
2023/08/11 08:32:29;;;;;;;2.17;2.00;;;22.50;70.80;;;;;;4963547;28;20091;-76
2023/08/11 08:34:55;;;;;;;2.15;1.90;;;22.60;70.30;;;;;;4956065;28;20059;-76
2023/08/11 08:37:24;;;;;;;2.50;2.30;;;22.70;70.00;;;;;;4957990;28;20368;-76
2023/08/11 08:39:50;;;;;;;2.45;2.20;;;22.80;69.30;;;;;;4975435;28;20018;-76
2023/08/11 08:42:17;;;;;;;3.33;2.00;;;22.90;69.00;;;;;;4978729;28;20538;-76
2023/08/11 08:44:47;;;;;;;2.22;2.03;;;23.10;68.60;;;;;;4980837;28;20046;-77
2023/08/11 08:47:13;;;;;;;2.20;2.00;;;23.20;67.60;;;;;;4977510;28;20033;-76
2023/08/11 08:49:41;;;;;;;1.90;1.75;;;23.40;67.30;;;;;;4974885;28;20369;-77
2023/08/11 08:52:07;;;;;;;2.03;1.92;;;23.40;67.10;;;;;;4960626;28;20022;-77
2023/08/11 08:54:34;;;;;;;1.88;1.77;;;23.60;66.40;;;;;;4974939;28;20031;-77
2023/08/11 08:57:03;;;;;;;2.22;2.03;;;23.70;65.50;;;;;;4958726;28;20037;-77
2023/08/11 08:59:29;;;;;;;1.98;1.88;;;23.80;65.70;;;;;;4966183;28;20448;-77
2023/08/11 09:01:55;;;;;;;1.77;1.67;;;23.90;65.30;;;;;;4956913;28;20031;-77
2023/08/11 09:04:22;;;;;;;1.80;1.70;;;24.00;64.80;;;;;;4956478;28;20085;-77
2023/08/11 09:06:48;;;;;;;1.90;1.80;;;24.10;64.10;;;;;;4957785;28;20019;-77
2023/08/11 09:09:15;;;;;;;2.17;1.98;;;24.30;63.80;;;;;;4960205;28;20077;-77
2023/08/11 09:11:41;;;;;;;2.00;1.80;;;24.40;63.70;;;;;;4957266;28;20027;-77
2023/08/11 09:14:08;;;;;;;2.08;1.98;;;24.40;62.90;;;;;;4957429;28;20051;-77
2023/08/11 09:16:35;;;;;;;1.90;1.80;;;24.50;62.60;;;;;;4958182;28;20291;-77
2023/08/11 09:19:03;;;;;;;2.00;1.90;;;24.60;62.20;;;;;;4969449;28;20046;-75
2023/08/11 09:21:30;;;;;;;1.90;1.80;;;24.80;61.50;;;;;;4971402;28;20030;-76
2023/08/11 09:23:56;;;;;;;2.20;2.10;;;24.90;61.30;;;;;;4957691;28;20078;-76
2023/08/11 09:26:23;;;;;;;2.00;1.90;;;;;;;;;;4959192;28;20032;-77
2023/08/11 09:28:52;;;;;;;2.25;2.05;;;25.10;59.90;;;;;;4958408;28;20111;-77
2023/08/11 09:31:24;;;;;;;1.80;1.70;;;25.10;60.00;;;;;;4957563;28;20082;-77
2023/08/11 09:33:51;;;;;;;1.77;1.67;;;25.20;59.80;;;;;;4961413;28;20075;-75
2023/08/11 09:36:17;;;;;;;2.30;2.10;;;25.30;59.60;;;;;;4975094;28;20123;-77
2023/08/11 09:38:44;;;;;;;1.80;1.70;;;25.40;59.50;;;;;;4976159;28;20526;-76
2023/08/11 09:41:14;;;;;;;1.67;1.58;;;25.50;59.30;;;;;;4976280;28;20099;-76
2023/08/11 09:43:48;;;;;;;1.80;1.70;;;25.70;59.50;;;;;;4956602;28;20373;-77
2023/08/11 09:46:14;;;;;;;1.98;1.88;;;25.90;58.70;;;;;;4957583;28;20039;-77
2023/08/11 09:48:40;;;;;;;2.05;1.85;;;26.10;58.10;;;;;;4971189;28;20034;-77
2023/08/11 09:51:10;;;;;;;2.10;1.90;;;26.20;57.60;;;;;;4958119;28;20158;-76
2023/08/11 09:53:40;;;;;;;1.80;1.70;;;26.30;57.40;;;;;;4964041;28;20015;-75
2023/08/11 09:56:07;;;;;;;1.60;1.50;;;26.40;57.30;;;;;;4984234;28;20030;-76
2023/08/11 09:58:37;;;;;;;2.20;2.10;;;26.50;56.90;;;;;;4985130;28;20031;-75
2023/08/11 10:01:07;;;;;;;4.90;4.22;;;26.60;56.90;;;;;;4963064;28;20436;-77
2023/08/11 10:03:40;;;;;;;7.90;4.78;;;26.80;56.70;;;;;;4964960;28;20042;-77
2023/08/11 10:06:08;;;;;;;5.82;4.68;;;26.80;56.40;;;;;;4954110;28;20027;-77
2023/08/11 10:08:34;;;;;;;5.47;3.70;;;26.90;56.30;;;;;;4973664;28;20144;-78
2023/08/11 10:11:00;;;;;;;5.28;3.25;;;27.10;56.10;;;;;;4960012;28;20046;-76
2023/08/11 10:13:28;;;;;;;2.80;2.60;;;27.10;55.60;;;;;;4961620;28;20147;-76
2023/08/11 10:15:55;;;;;;;2.72;2.42;;;27.30;55.50;;;;;;4968205;28;20019;-76
2023/08/11 10:18:21;;;;;;;2.67;2.45;;;27.30;55.10;;;;;;4977794;28;20039;-76
2023/08/11 10:20:50;;;;;;;2.70;2.40;;;27.40;55.10;;;;;;4979530;28;20053;-77
2023/08/11 10:23:17;;;;;;;2.42;2.22;;;27.50;54.60;;;;;;4945927;28;20498;-77
2023/08/11 10:25:47;;;;;;;2.03;1.92;;;27.60;54.70;;;;;;4959453;28;20443;-76
2023/08/11 10:28:14;;;;;;;2.30;2.10;;;27.60;54.60;;;;;;4979281;28;20026;-76
2023/08/11 10:30:40;;;;;;;2.63;2.42;;;27.60;54.60;;;;;;4975644;28;20027;-77
2023/08/11 10:33:08;;;;;;;2.38;2.22;;;27.60;54.40;;;;;;4974488;28;20522;-77
2023/08/11 10:35:54;;;;;;;2.50;2.30;;;27.60;54.60;;;;;;4972703;23;20047;-80
2023/08/11 10:38:30;;;;;;;2.40;2.30;;;27.80;54.40;;;;;;4957650;29;20134;-79
2023/08/11 10:41:08;;;;;;;2.20;2.00;;;27.90;54.30;;;;;;4960625;28;20113;-79
2023/08/11 10:43:37;;;;;;;2.00;1.80;;;28.10;53.70;;;;;;4960957;28;20035;-79
2023/08/11 10:46:31;;;;;;;2.40;2.20;;;28.10;53.40;;;;;;4962049;28;20429;-79
2023/08/11 10:49:20;;;;;;;2.28;2.08;;;28.10;53.50;;;;;;4962991;28;20031;-80
2023/08/11 10:51:46;;;;;;;3.63;2.33;;;28.20;53.40;;;;;;4961392;28;20038;-80
2023/08/11 10:54:22;;;;;;;2.60;2.40;;;28.00;53.50;;;;;;4964274;28;20525;-80
2023/08/11 10:56:50;;;;;;;2.97;2.75;;;28.10;53.40;;;;;;4972188;28;20034;-79
2023/08/11 10:59:17;;;;;;;2.80;2.60;;;28.20;53.10;;;;;;4983291;28;20031;-80
2023/08/11 11:01:48;;;;;;;2.80;2.60;;;28.30;52.70;;;;;;4982823;28;20053;-79
2023/08/11 11:04:16;;;;;;;2.60;2.40;;;28.30;52.60;;;;;;4983565;28;20052;-78
2023/08/11 11:06:45;;;;;;;3.15;2.85;;;28.30;52.40;;;;;;4963252;29;20031;-78
2023/08/11 11:09:13;;;;;;;2.72;2.40;;;28.30;52.70;;;;;;4961907;29;20034;-79
2023/08/11 11:11:39;;;;;;;2.40;2.20;;;28.30;53.00;;;;;;4967521;28;20022;-79
2023/08/11 11:14:06;;;;;;;2.60;2.40;;;28.40;52.80;;;;;;4981504;28;20402;-80
2023/08/11 11:16:33;;;;;;;2.40;2.22;;;28.40;52.50;;;;;;4980344;28;20034;-78
2023/08/11 11:19:07;;;;;;;2.45;2.25;;;28.50;52.40;;;;;;4980942;28;20075;-79
2023/08/11 11:21:33;;;;;;;2.03;1.92;;;28.50;52.80;;;;;;4981184;28;20038;-79
2023/08/11 11:24:00;;;;;;;2.17;2.08;;;28.60;53.00;;;;;;4985021;28;20027;-79
2023/08/11 11:26:29;;;;;;;2.13;2.00;;;28.70;52.40;;;;;;4988550;28;20026;-80
2023/08/11 11:28:56;;;;;;;2.17;2.03;;;28.80;52.10;;;;;;4990144;28;20078;-80
2023/08/11 11:31:24;;;;;;;2.22;2.05;;;28.80;52.10;;;;;;4990231;28;20031;-80
2023/08/11 11:33:50;;;;;;;2.10;2.00;;;28.70;52.40;;;;;;4989916;28;20015;-78
2023/08/11 11:36:18;;;;;;;2.20;2.00;;;28.70;51.80;;;;;;4973715;28;20030;-80
2023/08/11 11:38:45;;;;;;;2.10;1.90;;;28.70;52.20;;;;;;4962783;28;20034;-82
2023/08/11 11:41:12;;;;;;;2.22;2.03;;;28.70;52.30;;;;;;4963351;28;20030;-80
2023/08/11 11:43:38;;;;;;;2.00;1.90;;;28.90;52.00;;;;;;4978852;28;20035;-79
2023/08/11 11:46:14;;;;;;;2.03;1.92;;;28.90;51.90;;;;;;4978536;28;20142;-79
2023/08/11 11:48:46;;;;;;;2.30;2.20;;;28.90;51.70;;;;;;4972074;28;20034;-80
2023/08/11 11:51:12;;;;;;;2.10;2.00;;;29.00;51.90;;;;;;4960864;28;20481;-79
2023/08/11 11:53:39;;;;;;;2.35;2.10;;;29.10;51.80;;;;;;4967047;28;20094;-79
2023/08/11 11:56:05;;;;;;;2.60;2.40;;;29.10;51.40;;;;;;4980292;28;20035;-80
2023/08/11 11:58:33;;;;;;;2.65;2.35;;;29.20;51.10;;;;;;4980122;28;20495;-80
2023/08/11 12:01:20;;;;;;;2.88;2.40;;;29.10;51.50;;;;;;4982735;28;20467;-80
2023/08/11 12:03:47;;;;;;;2.60;2.40;;;28.90;51.40;;;;;;4980769;28;20027;-79
2023/08/11 12:06:15;;;;;;;2.72;2.53;;;28.70;52.20;;;;;;4964608;28;20020;-79
2023/08/11 12:08:41;;;;;;;2.40;2.30;;;28.70;52.00;;;;;;4961693;28;20038;-81
2023/08/11 12:11:09;;;;;;;2.38;2.10;;;28.70;52.10;;;;;;4962375;28;20046;-79
2023/08/11 12:13:41;;;;;;;2.20;2.10;;;28.70;51.90;;;;;;4968967;28;20110;-79
2023/08/11 12:16:08;;;;;;;2.42;2.22;;;28.70;52.00;;;;;;4982239;28;20412;-80
2023/08/11 12:18:35;;;;;;;2.33;2.15;;;28.70;51.40;;;;;;4972882;28;20142;-79
2023/08/11 12:21:01;;;;;;;2.50;2.30;;;28.80;52.00;;;;;;4961930;28;20430;-81
2023/08/11 12:23:27;;;;;;;2.65;2.45;;;29.00;51.60;;;;;;4970070;28;20045;-80
2023/08/11 12:25:54;;;;;;;2.47;1.92;;;29.00;51.50;;;;;;4982410;28;20038;-78
2023/08/11 12:28:20;;;;;;;2.45;2.25;;;29.00;52.00;;;;;;4981158;28;20023;-79
2023/08/11 12:30:46;;;;;;;2.92;2.30;;;29.10;51.80;;;;;;4982591;28;20054;-80
2023/08/11 12:33:12;;;;;;;4.13;2.60;;;29.10;51.70;;;;;;4977136;28;20070;-80
2023/08/11 12:35:38;;;;;;;2.50;2.30;;;29.20;51.60;;;;;;4963482;28;20023;-79
2023/08/11 12:38:05;;;;;;;2.22;2.13;;;29.30;51.50;;;;;;4968476;28;20039;-80
2023/08/11 12:40:31;;;;;;;2.22;2.10;;;29.40;51.10;;;;;;4966266;28;20107;-80
2023/08/11 12:42:57;;;;;;;2.40;2.30;;;29.40;50.40;;;;;;4968845;28;20073;-78
2023/08/11 12:45:23;;;;;;;2.40;2.20;;;29.30;50.90;;;;;;4988008;28;20015;-78
2023/08/11 12:48:07;;;;;;;2.22;2.13;;;29.40;51.40;;;;;;4992263;28;20046;-81
2023/08/11 12:50:35;;;;;;;2.03;1.92;;;29.40;50.50;;;;;;4987171;28;20062;-81
2023/08/11 12:53:04;;;;;;;2.30;2.20;;;29.60;50.40;;;;;;4980905;28;20078;-79
2023/08/11 12:55:30;;;;;;;2.13;2.03;;;29.70;50.20;;;;;;4981557;28;20116;-80